sensor_id;sensor_type;location;lat;lon;timestamp;temperature;humidity
8892;DHT22;4482;54.332;10.118;2024-03-02T00:02:06;8.90;99.90
8892;DHT22;4482;54.332;10.118;2024-03-02T00:04:33;8.90;99.90
8892;DHT22;4482;54.332;10.118;2024-03-02T00:07:01;8.90;99.90
8892;DHT22;4482;54.332;10.118;2024-03-02T00:09:28;9.00;99.90
8892;DHT22;4482;54.332;10.118;2024-03-02T00:11:55;9.00;99.90
8892;DHT22;4482;54.332;10.118;2024-03-02T00:14:22;9.00;99.90
8892;DHT22;4482;54.332;10.118;2024-03-02T00:16:49;9.00;99.90
8892;DHT22;4482;54.332;10.118;2024-03-02T00:19:17;9.00;99.90
8892;DHT22;4482;54.332;10.118;2024-03-02T00:21:43;9.00;99.90
8892;DHT22;4482;54.332;10.118;2024-03-02T00:24:18;9.00;99.90
8892;DHT22;4482;54.332;10.118;2024-03-02T00:26:46;9.00;99.90
8892;DHT22;4482;54.332;10.118;2024-03-02T00:29:13;9.00;99.90
8892;DHT22;4482;54.332;10.118;2024-03-02T00:31:42;9.10;99.90
8892;DHT22;4482;54.332;10.118;2024-03-02T00:34:08;9.10;99.90
8892;DHT22;4482;54.332;10.118;2024-03-02T00:36:36;9.10;99.90
8892;DHT22;4482;54.332;10.118;2024-03-02T00:39:03;9.10;99.90
8892;DHT22;4482;54.332;10.118;2024-03-02T00:41:34;9.10;99.90
8892;DHT22;4482;54.332;10.118;2024-03-02T00:44:01;9.00;99.90
8892;DHT22;4482;54.332;10.118;2024-03-02T00:46:29;9.00;99.90
8892;DHT22;4482;54.332;10.118;2024-03-02T00:48:56;9.00;99.90
8892;DHT22;4482;54.332;10.118;2024-03-02T00:51:24;9.00;99.90
8892;DHT22;4482;54.332;10.118;2024-03-02T00:53:51;9.00;99.90
8892;DHT22;4482;54.332;10.118;2024-03-02T00:56:20;9.00;99.90
8892;DHT22;4482;54.332;10.118;2024-03-02T00:58:49;9.00;99.90
8892;DHT22;4482;54.332;10.118;2024-03-02T01:01:16;9.00;99.90
8892;DHT22;4482;54.332;10.118;2024-03-02T01:03:42;9.00;99.90
8892;DHT22;4482;54.332;10.118;2024-03-02T01:06:09;8.90;99.90
8892;DHT22;4482;54.332;10.118;2024-03-02T01:08:36;9.00;99.90
8892;DHT22;4482;54.332;10.118;2024-03-02T01:11:03;8.90;99.90
8892;DHT22;4482;54.332;10.118;2024-03-02T01:13:30;8.80;99.90
8892;DHT22;4482;54.332;10.118;2024-03-02T01:15:58;8.80;99.90
8892;DHT22;4482;54.332;10.118;2024-03-02T01:18:25;8.80;99.90
8892;DHT22;4482;54.332;10.118;2024-03-02T01:20:51;8.80;99.90
8892;DHT22;4482;54.332;10.118;2024-03-02T01:23:20;8.70;99.90
8892;DHT22;4482;54.332;10.118;2024-03-02T01:25:47;8.60;99.90
8892;DHT22;4482;54.332;10.118;2024-03-02T01:28:14;8.60;99.90
8892;DHT22;4482;54.332;10.118;2024-03-02T01:30:40;8.50;99.90
8892;DHT22;4482;54.332;10.118;2024-03-02T01:33:09;8.50;99.90
8892;DHT22;4482;54.332;10.118;2024-03-02T01:35:36;8.50;99.90
8892;DHT22;4482;54.332;10.118;2024-03-02T01:38:02;8.50;99.90
8892;DHT22;4482;54.332;10.118;2024-03-02T01:40:31;8.50;99.90
8892;DHT22;4482;54.332;10.118;2024-03-02T01:42:58;8.50;99.90
8892;DHT22;4482;54.332;10.118;2024-03-02T01:45:25;8.50;99.90
8892;DHT22;4482;54.332;10.118;2024-03-02T01:47:52;8.50;99.90
8892;DHT22;4482;54.332;10.118;2024-03-02T01:50:25;8.50;99.90
8892;DHT22;4482;54.332;10.118;2024-03-02T01:52:52;8.50;99.90
8892;DHT22;4482;54.332;10.118;2024-03-02T01:55:20;8.50;99.90
8892;DHT22;4482;54.332;10.118;2024-03-02T01:57:46;8.50;99.90
8892;DHT22;4482;54.332;10.118;2024-03-02T02:00:14;8.50;99.90
8892;DHT22;4482;54.332;10.118;2024-03-02T02:02:40;8.40;99.90
8892;DHT22;4482;54.332;10.118;2024-03-02T02:05:07;8.40;99.90
8892;DHT22;4482;54.332;10.118;2024-03-02T02:07:36;8.40;99.90
8892;DHT22;4482;54.332;10.118;2024-03-02T02:10:03;8.30;99.90
8892;DHT22;4482;54.332;10.118;2024-03-02T02:12:30;8.30;99.90
8892;DHT22;4482;54.332;10.118;2024-03-02T02:14:56;8.30;99.90
8892;DHT22;4482;54.332;10.118;2024-03-02T02:17:23;8.20;99.90
8892;DHT22;4482;54.332;10.118;2024-03-02T02:19:50;8.20;99.90
8892;DHT22;4482;54.332;10.118;2024-03-02T02:22:18;8.20;99.90
8892;DHT22;4482;54.332;10.118;2024-03-02T02:24:44;8.20;99.90
8892;DHT22;4482;54.332;10.118;2024-03-02T02:27:11;8.20;99.90
8892;DHT22;4482;54.332;10.118;2024-03-02T02:29:40;8.20;99.90
8892;DHT22;4482;54.332;10.118;2024-03-02T02:32:07;8.20;99.90
8892;DHT22;4482;54.332;10.118;2024-03-02T02:34:34;8.10;99.90
8892;DHT22;4482;54.332;10.118;2024-03-02T02:37:00;8.10;99.90
8892;DHT22;4482;54.332;10.118;2024-03-02T02:39:29;8.10;99.90
8892;DHT22;4482;54.332;10.118;2024-03-02T02:41:55;8.10;99.90
8892;DHT22;4482;54.332;10.118;2024-03-02T02:44:22;8.10;99.90
8892;DHT22;4482;54.332;10.118;2024-03-02T02:46:49;8.10;99.90
8892;DHT22;4482;54.332;10.118;2024-03-02T02:49:16;8.10;99.90
8892;DHT22;4482;54.332;10.118;2024-03-02T02:51:42;8.10;99.90
8892;DHT22;4482;54.332;10.118;2024-03-02T02:54:09;8.10;99.90
8892;DHT22;4482;54.332;10.118;2024-03-02T02:56:37;8.10;99.90
8892;DHT22;4482;54.332;10.118;2024-03-02T02:59:04;8.00;99.90
8892;DHT22;4482;54.332;10.118;2024-03-02T03:01:31;8.00;99.90
8892;DHT22;4482;54.332;10.118;2024-03-02T03:03:57;8.00;99.90
8892;DHT22;4482;54.332;10.118;2024-03-02T03:06:24;8.00;99.90
8892;DHT22;4482;54.332;10.118;2024-03-02T03:08:51;8.10;99.90
8892;DHT22;4482;54.332;10.118;2024-03-02T03:11:17;8.10;99.90
8892;DHT22;4482;54.332;10.118;2024-03-02T03:13:46;8.20;99.90
8892;DHT22;4482;54.332;10.118;2024-03-02T03:16:13;8.10;99.90
8892;DHT22;4482;54.332;10.118;2024-03-02T03:18:40;8.10;99.90
8892;DHT22;4482;54.332;10.118;2024-03-02T03:21:07;8.10;99.90
8892;DHT22;4482;54.332;10.118;2024-03-02T03:23:33;8.10;99.90
8892;DHT22;4482;54.332;10.118;2024-03-02T03:26:00;8.10;99.90
8892;DHT22;4482;54.332;10.118;2024-03-02T03:28:27;8.10;99.90
8892;DHT22;4482;54.332;10.118;2024-03-02T03:30:55;8.10;99.90
8892;DHT22;4482;54.332;10.118;2024-03-02T03:33:22;8.10;99.90
8892;DHT22;4482;54.332;10.118;2024-03-02T03:35:49;8.10;99.90
8892;DHT22;4482;54.332;10.118;2024-03-02T03:38:15;8.10;99.90
8892;DHT22;4482;54.332;10.118;2024-03-02T03:40:42;8.10;99.90
8892;DHT22;4482;54.332;10.118;2024-03-02T03:43:10;8.10;99.90
8892;DHT22;4482;54.332;10.118;2024-03-02T03:45:36;8.10;99.90
8892;DHT22;4482;54.332;10.118;2024-03-02T03:48:05;8.10;99.90
8892;DHT22;4482;54.332;10.118;2024-03-02T03:50:32;8.10;99.90
8892;DHT22;4482;54.332;10.118;2024-03-02T03:52:58;8.20;99.90
8892;DHT22;4482;54.332;10.118;2024-03-02T03:55:25;8.20;99.90
8892;DHT22;4482;54.332;10.118;2024-03-02T03:57:52;8.20;99.90
8892;DHT22;4482;54.332;10.118;2024-03-02T04:00:18;8.20;99.90
8892;DHT22;4482;54.332;10.118;2024-03-02T04:02:45;8.20;99.90
8892;DHT22;4482;54.332;10.118;2024-03-02T04:05:13;8.20;99.90
8892;DHT22;4482;54.332;10.118;2024-03-02T04:07:40;8.20;99.90
8892;DHT22;4482;54.332;10.118;2024-03-02T04:10:08;8.20;99.90
8892;DHT22;4482;54.332;10.118;2024-03-02T04:12:41;8.10;99.90
8892;DHT22;4482;54.332;10.118;2024-03-02T04:15:08;8.10;99.90
8892;DHT22;4482;54.332;10.118;2024-03-02T04:17:34;8.20;99.90
8892;DHT22;4482;54.332;10.118;2024-03-02T04:20:02;8.20;99.90
8892;DHT22;4482;54.332;10.118;2024-03-02T04:22:32;8.20;99.90
8892;DHT22;4482;54.332;10.118;2024-03-02T04:24:59;8.20;99.90
8892;DHT22;4482;54.332;10.118;2024-03-02T04:27:25;8.20;99.90
8892;DHT22;4482;54.332;10.118;2024-03-02T04:29:52;8.20;99.90
8892;DHT22;4482;54.332;10.118;2024-03-02T04:32:19;8.20;99.90
8892;DHT22;4482;54.332;10.118;2024-03-02T04:34:46;8.20;99.90
8892;DHT22;4482;54.332;10.118;2024-03-02T04:37:12;8.20;99.90
8892;DHT22;4482;54.332;10.118;2024-03-02T04:39:41;8.10;99.90
8892;DHT22;4482;54.332;10.118;2024-03-02T04:42:08;8.10;99.90
8892;DHT22;4482;54.332;10.118;2024-03-02T04:44:34;8.10;99.90
8892;DHT22;4482;54.332;10.118;2024-03-02T04:47:02;8.10;99.90
8892;DHT22;4482;54.332;10.118;2024-03-02T04:49:29;8.00;99.90
8892;DHT22;4482;54.332;10.118;2024-03-02T04:51:55;8.00;99.90
8892;DHT22;4482;54.332;10.118;2024-03-02T04:54:22;8.00;99.90
8892;DHT22;4482;54.332;10.118;2024-03-02T04:56:51;8.00;99.90
8892;DHT22;4482;54.332;10.118;2024-03-02T04:59:16;8.00;99.90
8892;DHT22;4482;54.332;10.118;2024-03-02T05:01:43;8.00;99.90
8892;DHT22;4482;54.332;10.118;2024-03-02T05:04:10;7.90;99.90
8892;DHT22;4482;54.332;10.118;2024-03-02T05:06:37;7.90;99.90
8892;DHT22;4482;54.332;10.118;2024-03-02T05:09:05;7.90;99.90
8892;DHT22;4482;54.332;10.118;2024-03-02T05:11:32;7.90;99.90
8892;DHT22;4482;54.332;10.118;2024-03-02T05:14:20;7.90;99.90
8892;DHT22;4482;54.332;10.118;2024-03-02T05:16:47;7.90;99.90
8892;DHT22;4482;54.332;10.118;2024-03-02T05:19:13;7.90;99.90
8892;DHT22;4482;54.332;10.118;2024-03-02T05:21:40;7.90;99.90
8892;DHT22;4482;54.332;10.118;2024-03-02T05:24:07;7.80;99.90
8892;DHT22;4482;54.332;10.118;2024-03-02T05:26:34;7.90;99.90
8892;DHT22;4482;54.332;10.118;2024-03-02T05:29:00;7.90;99.90
8892;DHT22;4482;54.332;10.118;2024-03-02T05:31:29;7.80;99.90
8892;DHT22;4482;54.332;10.118;2024-03-02T05:33:56;7.80;99.90
8892;DHT22;4482;54.332;10.118;2024-03-02T05:36:23;7.80;99.90
8892;DHT22;4482;54.332;10.118;2024-03-02T05:38:50;7.80;99.90
8892;DHT22;4482;54.332;10.118;2024-03-02T05:41:17;7.80;99.90
8892;DHT22;4482;54.332;10.118;2024-03-02T05:43:43;7.70;99.90
8892;DHT22;4482;54.332;10.118;2024-03-02T05:46:10;7.80;99.90
8892;DHT22;4482;54.332;10.118;2024-03-02T05:48:38;7.80;99.90
8892;DHT22;4482;54.332;10.118;2024-03-02T05:51:05;7.80;99.90
8892;DHT22;4482;54.332;10.118;2024-03-02T05:53:32;7.80;99.90
8892;DHT22;4482;54.332;10.118;2024-03-02T05:55:59;7.80;99.90
8892;DHT22;4482;54.332;10.118;2024-03-02T05:58:25;7.80;99.90
8892;DHT22;4482;54.332;10.118;2024-03-02T06:01:02;7.80;99.90
8892;DHT22;4482;54.332;10.118;2024-03-02T06:03:30;7.80;99.90
8892;DHT22;4482;54.332;10.118;2024-03-02T06:05:58;7.80;99.90
8892;DHT22;4482;54.332;10.118;2024-03-02T06:08:25;7.80;99.90
8892;DHT22;4482;54.332;10.118;2024-03-02T06:10:51;7.80;99.90
8892;DHT22;4482;54.332;10.118;2024-03-02T06:13:18;7.80;99.90
8892;DHT22;4482;54.332;10.118;2024-03-02T06:15:45;7.90;99.90
8892;DHT22;4482;54.332;10.118;2024-03-02T06:18:11;7.90;99.90
8892;DHT22;4482;54.332;10.118;2024-03-02T06:20:38;7.90;99.90
8892;DHT22;4482;54.332;10.118;2024-03-02T06:23:06;7.90;99.90
8892;DHT22;4482;54.332;10.118;2024-03-02T06:25:33;7.90;99.90
8892;DHT22;4482;54.332;10.118;2024-03-02T06:28:00;7.90;99.90
8892;DHT22;4482;54.332;10.118;2024-03-02T06:30:26;7.90;99.90
8892;DHT22;4482;54.332;10.118;2024-03-02T06:32:53;7.90;99.90
8892;DHT22;4482;54.332;10.118;2024-03-02T06:35:20;7.90;99.90
8892;DHT22;4482;54.332;10.118;2024-03-02T06:37:46;8.00;99.90
8892;DHT22;4482;54.332;10.118;2024-03-02T06:40:14;8.00;99.90
8892;DHT22;4482;54.332;10.118;2024-03-02T06:42:41;8.00;99.90
8892;DHT22;4482;54.332;10.118;2024-03-02T06:45:08;8.00;99.90
8892;DHT22;4482;54.332;10.118;2024-03-02T06:47:34;8.00;99.90
8892;DHT22;4482;54.332;10.118;2024-03-02T06:50:01;8.10;99.90
8892;DHT22;4482;54.332;10.118;2024-03-02T06:52:28;8.10;99.90
8892;DHT22;4482;54.332;10.118;2024-03-02T06:54:55;8.10;99.90
8892;DHT22;4482;54.332;10.118;2024-03-02T06:57:23;8.10;99.90
8892;DHT22;4482;54.332;10.118;2024-03-02T06:59:49;8.20;99.90
8892;DHT22;4482;54.332;10.118;2024-03-02T07:02:19;8.20;99.90
8892;DHT22;4482;54.332;10.118;2024-03-02T07:04:46;8.20;99.90
8892;DHT22;4482;54.332;10.118;2024-03-02T07:07:12;8.20;99.90
8892;DHT22;4482;54.332;10.118;2024-03-02T07:09:39;8.30;99.90
8892;DHT22;4482;54.332;10.118;2024-03-02T07:12:06;8.30;99.90
8892;DHT22;4482;54.332;10.118;2024-03-02T07:14:34;8.40;99.90
8892;DHT22;4482;54.332;10.118;2024-03-02T07:17:19;8.40;99.90
8892;DHT22;4482;54.332;10.118;2024-03-02T07:19:45;8.40;99.90
8892;DHT22;4482;54.332;10.118;2024-03-02T07:22:12;8.50;99.90
8892;DHT22;4482;54.332;10.118;2024-03-02T07:24:39;8.50;99.90
8892;DHT22;4482;54.332;10.118;2024-03-02T07:27:07;8.50;99.90
8892;DHT22;4482;54.332;10.118;2024-03-02T07:29:35;8.50;99.90
8892;DHT22;4482;54.332;10.118;2024-03-02T07:32:02;8.50;99.90
8892;DHT22;4482;54.332;10.118;2024-03-02T07:34:29;8.50;99.90
8892;DHT22;4482;54.332;10.118;2024-03-02T07:36:55;8.50;99.90
8892;DHT22;4482;54.332;10.118;2024-03-02T07:39:22;8.50;99.90
8892;DHT22;4482;54.332;10.118;2024-03-02T07:41:49;8.60;99.90
8892;DHT22;4482;54.332;10.118;2024-03-02T07:44:16;8.60;99.90
8892;DHT22;4482;54.332;10.118;2024-03-02T07:46:46;8.60;99.90
8892;DHT22;4482;54.332;10.118;2024-03-02T07:49:13;8.70;99.90
8892;DHT22;4482;54.332;10.118;2024-03-02T07:51:40;8.80;99.90
8892;DHT22;4482;54.332;10.118;2024-03-02T07:54:06;8.90;99.90
8892;DHT22;4482;54.332;10.118;2024-03-02T07:56:33;8.90;99.90
8892;DHT22;4482;54.332;10.118;2024-03-02T07:59:00;8.90;99.90
8892;DHT22;4482;54.332;10.118;2024-03-02T08:01:27;8.90;99.90
8892;DHT22;4482;54.332;10.118;2024-03-02T08:03:55;8.90;99.90
8892;DHT22;4482;54.332;10.118;2024-03-02T08:06:23;8.90;99.90
8892;DHT22;4482;54.332;10.118;2024-03-02T08:08:52;9.00;99.90
8892;DHT22;4482;54.332;10.118;2024-03-02T08:11:19;9.10;99.90
8892;DHT22;4482;54.332;10.118;2024-03-02T08:13:46;9.10;99.90
8892;DHT22;4482;54.332;10.118;2024-03-02T08:16:13;9.10;99.90
8892;DHT22;4482;54.332;10.118;2024-03-02T08:18:39;9.10;99.90
8892;DHT22;4482;54.332;10.118;2024-03-02T08:21:08;9.10;99.90
8892;DHT22;4482;54.332;10.118;2024-03-02T08:23:34;9.20;99.90
8892;DHT22;4482;54.332;10.118;2024-03-02T08:26:01;9.30;99.90
8892;DHT22;4482;54.332;10.118;2024-03-02T08:28:28;9.40;99.90
8892;DHT22;4482;54.332;10.118;2024-03-02T08:30:55;9.50;99.90
8892;DHT22;4482;54.332;10.118;2024-03-02T08:33:22;9.60;99.90
8892;DHT22;4482;54.332;10.118;2024-03-02T08:35:48;9.70;99.90
8892;DHT22;4482;54.332;10.118;2024-03-02T08:38:16;9.80;99.90
8892;DHT22;4482;54.332;10.118;2024-03-02T08:40:43;9.80;99.90
8892;DHT22;4482;54.332;10.118;2024-03-02T08:43:10;9.90;99.90
8892;DHT22;4482;54.332;10.118;2024-03-02T08:45:37;9.80;99.90
8892;DHT22;4482;54.332;10.118;2024-03-02T08:48:05;9.80;99.90
8892;DHT22;4482;54.332;10.118;2024-03-02T08:50:32;9.80;99.90
8892;DHT22;4482;54.332;10.118;2024-03-02T08:52:59;9.90;99.90
8892;DHT22;4482;54.332;10.118;2024-03-02T08:55:27;9.90;99.90
8892;DHT22;4482;54.332;10.118;2024-03-02T08:57:54;9.90;99.90
8892;DHT22;4482;54.332;10.118;2024-03-02T09:00:21;10.00;99.90
8892;DHT22;4482;54.332;10.118;2024-03-02T09:02:48;10.10;99.90
8892;DHT22;4482;54.332;10.118;2024-03-02T09:05:15;10.10;99.90
8892;DHT22;4482;54.332;10.118;2024-03-02T09:07:41;10.30;99.90
8892;DHT22;4482;54.332;10.118;2024-03-02T09:10:08;10.40;99.90
8892;DHT22;4482;54.332;10.118;2024-03-02T09:12:36;10.60;99.90
8892;DHT22;4482;54.332;10.118;2024-03-02T09:15:04;10.80;99.90
8892;DHT22;4482;54.332;10.118;2024-03-02T09:17:31;10.90;99.90
8892;DHT22;4482;54.332;10.118;2024-03-02T09:19:58;11.00;99.90
8892;DHT22;4482;54.332;10.118;2024-03-02T09:22:24;11.30;99.90
8892;DHT22;4482;54.332;10.118;2024-03-02T09:24:51;11.50;99.90
8892;DHT22;4482;54.332;10.118;2024-03-02T09:27:18;11.60;99.90
8892;DHT22;4482;54.332;10.118;2024-03-02T09:29:46;11.70;99.90
8892;DHT22;4482;54.332;10.118;2024-03-02T09:32:13;11.80;99.90
8892;DHT22;4482;54.332;10.118;2024-03-02T09:34:40;11.90;99.90
8892;DHT22;4482;54.332;10.118;2024-03-02T09:37:06;11.90;99.90
8892;DHT22;4482;54.332;10.118;2024-03-02T09:39:33;11.90;99.90
8892;DHT22;4482;54.332;10.118;2024-03-02T09:42:00;11.80;99.90
8892;DHT22;4482;54.332;10.118;2024-03-02T09:44:27;11.80;99.90
8892;DHT22;4482;54.332;10.118;2024-03-02T09:46:55;11.80;99.90
8892;DHT22;4482;54.332;10.118;2024-03-02T09:49:22;11.90;99.90
8892;DHT22;4482;54.332;10.118;2024-03-02T09:51:49;11.90;99.90
8892;DHT22;4482;54.332;10.118;2024-03-02T09:54:16;12.00;99.90
8892;DHT22;4482;54.332;10.118;2024-03-02T09:56:42;12.00;99.90
8892;DHT22;4482;54.332;10.118;2024-03-02T09:59:10;12.10;99.90
8892;DHT22;4482;54.332;10.118;2024-03-02T10:01:37;12.00;99.90
8892;DHT22;4482;54.332;10.118;2024-03-02T10:04:05;12.00;99.90
8892;DHT22;4482;54.332;10.118;2024-03-02T10:06:32;12.00;99.90
8892;DHT22;4482;54.332;10.118;2024-03-02T10:08:58;12.10;99.90
8892;DHT22;4482;54.332;10.118;2024-03-02T10:11:26;12.10;99.90
8892;DHT22;4482;54.332;10.118;2024-03-02T10:16:35;12.20;99.90
8892;DHT22;4482;54.332;10.118;2024-03-02T10:19:17;12.30;99.90
8892;DHT22;4482;54.332;10.118;2024-03-02T10:21:44;12.30;99.90
8892;DHT22;4482;54.332;10.118;2024-03-02T10:24:11;12.40;99.90
8892;DHT22;4482;54.332;10.118;2024-03-02T10:26:38;12.40;99.90
8892;DHT22;4482;54.332;10.118;2024-03-02T10:29:04;12.40;99.90
8892;DHT22;4482;54.332;10.118;2024-03-02T10:31:31;12.40;99.90
8892;DHT22;4482;54.332;10.118;2024-03-02T10:33:58;12.50;99.90
8892;DHT22;4482;54.332;10.118;2024-03-02T10:36:29;12.50;99.90
8892;DHT22;4482;54.332;10.118;2024-03-02T10:38:56;12.60;99.90
8892;DHT22;4482;54.332;10.118;2024-03-02T10:41:27;12.70;99.90
8892;DHT22;4482;54.332;10.118;2024-03-02T10:43:54;12.80;99.90
8892;DHT22;4482;54.332;10.118;2024-03-02T10:46:26;12.80;99.90
8892;DHT22;4482;54.332;10.118;2024-03-02T10:48:55;12.80;99.90
8892;DHT22;4482;54.332;10.118;2024-03-02T10:51:24;12.70;99.90
8892;DHT22;4482;54.332;10.118;2024-03-02T10:53:52;12.80;99.90
8892;DHT22;4482;54.332;10.118;2024-03-02T10:56:21;12.70;99.90
8892;DHT22;4482;54.332;10.118;2024-03-02T10:58:49;12.70;99.90
8892;DHT22;4482;54.332;10.118;2024-03-02T11:01:17;12.60;99.90
8892;DHT22;4482;54.332;10.118;2024-03-02T11:03:44;12.60;99.90
8892;DHT22;4482;54.332;10.118;2024-03-02T11:06:11;12.70;99.90
8892;DHT22;4482;54.332;10.118;2024-03-02T11:08:38;12.70;99.90
8892;DHT22;4482;54.332;10.118;2024-03-02T11:11:09;12.70;99.90
8892;DHT22;4482;54.332;10.118;2024-03-02T11:13:42;12.80;99.90
8892;DHT22;4482;54.332;10.118;2024-03-02T11:16:12;12.80;99.90
8892;DHT22;4482;54.332;10.118;2024-03-02T11:18:39;12.80;99.90
8892;DHT22;4482;54.332;10.118;2024-03-02T11:21:06;12.90;99.90
8892;DHT22;4482;54.332;10.118;2024-03-02T11:23:33;12.90;99.90
8892;DHT22;4482;54.332;10.118;2024-03-02T11:26:20;13.00;99.90
8892;DHT22;4482;54.332;10.118;2024-03-02T11:28:48;13.00;99.90
8892;DHT22;4482;54.332;10.118;2024-03-02T11:31:15;13.00;99.90
8892;DHT22;4482;54.332;10.118;2024-03-02T11:33:42;13.10;99.90
8892;DHT22;4482;54.332;10.118;2024-03-02T11:36:09;13.20;99.90
8892;DHT22;4482;54.332;10.118;2024-03-02T11:38:36;13.20;99.90
8892;DHT22;4482;54.332;10.118;2024-03-02T11:41:03;13.30;99.90
8892;DHT22;4482;54.332;10.118;2024-03-02T11:43:34;13.50;99.90
8892;DHT22;4482;54.332;10.118;2024-03-02T11:46:04;13.50;99.90
8892;DHT22;4482;54.332;10.118;2024-03-02T11:48:32;13.40;99.90
8892;DHT22;4482;54.332;10.118;2024-03-02T11:51:00;13.40;99.90
8892;DHT22;4482;54.332;10.118;2024-03-02T11:53:27;13.40;99.90
8892;DHT22;4482;54.332;10.118;2024-03-02T11:55:55;13.40;99.90
8892;DHT22;4482;54.332;10.118;2024-03-02T11:58:21;13.40;99.90
8892;DHT22;4482;54.332;10.118;2024-03-02T12:00:51;13.30;99.90
8892;DHT22;4482;54.332;10.118;2024-03-02T12:03:18;13.20;99.90
8892;DHT22;4482;54.332;10.118;2024-03-02T12:05:46;13.20;99.90
8892;DHT22;4482;54.332;10.118;2024-03-02T12:08:14;13.10;99.90
8892;DHT22;4482;54.332;10.118;2024-03-02T12:10:41;13.00;99.90
8892;DHT22;4482;54.332;10.118;2024-03-02T12:13:09;12.90;99.90
8892;DHT22;4482;54.332;10.118;2024-03-02T12:15:37;13.00;99.90
8892;DHT22;4482;54.332;10.118;2024-03-02T12:18:06;13.00;99.90
8892;DHT22;4482;54.332;10.118;2024-03-02T12:20:33;12.90;99.90
8892;DHT22;4482;54.332;10.118;2024-03-02T12:23:00;13.00;99.90
8892;DHT22;4482;54.332;10.118;2024-03-02T12:25:27;12.80;99.90
8892;DHT22;4482;54.332;10.118;2024-03-02T12:27:55;12.90;99.90
8892;DHT22;4482;54.332;10.118;2024-03-02T12:30:22;12.90;99.90
8892;DHT22;4482;54.332;10.118;2024-03-02T12:32:48;12.90;99.90
8892;DHT22;4482;54.332;10.118;2024-03-02T12:35:17;12.80;99.90
8892;DHT22;4482;54.332;10.118;2024-03-02T12:37:44;12.90;99.90
8892;DHT22;4482;54.332;10.118;2024-03-02T12:40:11;12.80;99.90
8892;DHT22;4482;54.332;10.118;2024-03-02T12:42:38;12.90;99.90
8892;DHT22;4482;54.332;10.118;2024-03-02T12:45:05;12.80;99.90
8892;DHT22;4482;54.332;10.118;2024-03-02T12:47:32;12.80;99.90
8892;DHT22;4482;54.332;10.118;2024-03-02T12:49:59;12.90;99.90
8892;DHT22;4482;54.332;10.118;2024-03-02T12:52:27;12.80;99.90
8892;DHT22;4482;54.332;10.118;2024-03-02T12:54:54;12.90;99.90
8892;DHT22;4482;54.332;10.118;2024-03-02T12:57:26;12.90;99.90
8892;DHT22;4482;54.332;10.118;2024-03-02T12:59:57;13.00;99.90
8892;DHT22;4482;54.332;10.118;2024-03-02T13:02:27;13.00;99.90
8892;DHT22;4482;54.332;10.118;2024-03-02T13:04:53;13.00;99.90
8892;DHT22;4482;54.332;10.118;2024-03-02T13:07:20;12.90;99.90
8892;DHT22;4482;54.332;10.118;2024-03-02T13:09:49;12.80;99.90
8892;DHT22;4482;54.332;10.118;2024-03-02T13:12:16;12.80;99.90
8892;DHT22;4482;54.332;10.118;2024-03-02T13:14:42;12.80;99.90
8892;DHT22;4482;54.332;10.118;2024-03-02T13:17:09;12.80;99.90
8892;DHT22;4482;54.332;10.118;2024-03-02T13:19:36;12.90;99.90
8892;DHT22;4482;54.332;10.118;2024-03-02T13:22:03;12.90;99.90
8892;DHT22;4482;54.332;10.118;2024-03-02T13:24:29;12.90;99.90
8892;DHT22;4482;54.332;10.118;2024-03-02T13:26:58;13.00;99.90
8892;DHT22;4482;54.332;10.118;2024-03-02T13:29:25;13.00;99.90
8892;DHT22;4482;54.332;10.118;2024-03-02T13:31:53;13.00;99.90
8892;DHT22;4482;54.332;10.118;2024-03-02T13:34:19;13.00;99.90
8892;DHT22;4482;54.332;10.118;2024-03-02T13:36:46;12.90;99.90
8892;DHT22;4482;54.332;10.118;2024-03-02T13:39:13;12.90;99.90
8892;DHT22;4482;54.332;10.118;2024-03-02T13:41:40;12.90;99.90
8892;DHT22;4482;54.332;10.118;2024-03-02T13:44:09;12.90;99.90
8892;DHT22;4482;54.332;10.118;2024-03-02T13:46:35;13.00;99.90
8892;DHT22;4482;54.332;10.118;2024-03-02T13:49:02;12.90;99.90
8892;DHT22;4482;54.332;10.118;2024-03-02T13:51:29;12.80;99.90
8892;DHT22;4482;54.332;10.118;2024-03-02T13:53:57;12.80;99.90
8892;DHT22;4482;54.332;10.118;2024-03-02T13:56:24;12.80;99.90
8892;DHT22;4482;54.332;10.118;2024-03-02T13:58:51;12.80;99.90
8892;DHT22;4482;54.332;10.118;2024-03-02T14:01:19;12.80;99.90
8892;DHT22;4482;54.332;10.118;2024-03-02T14:03:45;12.80;99.90
8892;DHT22;4482;54.332;10.118;2024-03-02T14:06:13;12.80;99.90
8892;DHT22;4482;54.332;10.118;2024-03-02T14:08:40;12.80;99.90
8892;DHT22;4482;54.332;10.118;2024-03-02T14:11:10;12.80;99.90
8892;DHT22;4482;54.332;10.118;2024-03-02T14:13:40;12.70;99.90
8892;DHT22;4482;54.332;10.118;2024-03-02T14:16:06;12.80;99.90
8892;DHT22;4482;54.332;10.118;2024-03-02T14:18:35;12.70;99.90
8892;DHT22;4482;54.332;10.118;2024-03-02T14:21:02;12.70;99.90
8892;DHT22;4482;54.332;10.118;2024-03-02T14:23:29;12.70;99.90
8892;DHT22;4482;54.332;10.118;2024-03-02T14:25:56;12.70;99.90
8892;DHT22;4482;54.332;10.118;2024-03-02T14:28:24;12.70;99.90
8892;DHT22;4482;54.332;10.118;2024-03-02T14:30:51;12.60;99.90
8892;DHT22;4482;54.332;10.118;2024-03-02T14:33:19;12.60;99.90
8892;DHT22;4482;54.332;10.118;2024-03-02T14:35:47;12.50;99.90
8892;DHT22;4482;54.332;10.118;2024-03-02T14:38:14;12.50;99.90
8892;DHT22;4482;54.332;10.118;2024-03-02T14:40:40;12.50;99.90
8892;DHT22;4482;54.332;10.118;2024-03-02T14:43:08;12.50;99.90
8892;DHT22;4482;54.332;10.118;2024-03-02T14:45:34;12.50;99.90
8892;DHT22;4482;54.332;10.118;2024-03-02T14:48:02;12.60;99.90
8892;DHT22;4482;54.332;10.118;2024-03-02T14:50:29;12.60;99.90
8892;DHT22;4482;54.332;10.118;2024-03-02T14:52:57;12.60;99.90
8892;DHT22;4482;54.332;10.118;2024-03-02T14:55:24;12.60;99.90
8892;DHT22;4482;54.332;10.118;2024-03-02T14:57:51;12.60;99.90
8892;DHT22;4482;54.332;10.118;2024-03-02T15:00:18;12.70;99.90
8892;DHT22;4482;54.332;10.118;2024-03-02T15:02:45;12.60;99.90
8892;DHT22;4482;54.332;10.118;2024-03-02T15:05:12;12.60;99.90
8892;DHT22;4482;54.332;10.118;2024-03-02T15:07:41;12.70;99.90
8892;DHT22;4482;54.332;10.118;2024-03-02T15:10:10;12.60;99.90
8892;DHT22;4482;54.332;10.118;2024-03-02T15:12:37;12.60;99.90
8892;DHT22;4482;54.332;10.118;2024-03-02T15:15:04;12.60;99.90
8892;DHT22;4482;54.332;10.118;2024-03-02T15:17:31;12.60;99.90
8892;DHT22;4482;54.332;10.118;2024-03-02T15:19:57;12.60;99.90
8892;DHT22;4482;54.332;10.118;2024-03-02T15:22:24;12.60;99.90
8892;DHT22;4482;54.332;10.118;2024-03-02T15:24:51;12.60;99.90
8892;DHT22;4482;54.332;10.118;2024-03-02T15:27:20;12.60;99.90
8892;DHT22;4482;54.332;10.118;2024-03-02T15:29:47;12.60;99.90
8892;DHT22;4482;54.332;10.118;2024-03-02T15:32:15;12.60;99.90
8892;DHT22;4482;54.332;10.118;2024-03-02T15:34:42;12.60;99.90
8892;DHT22;4482;54.332;10.118;2024-03-02T15:37:09;12.50;99.90
8892;DHT22;4482;54.332;10.118;2024-03-02T15:39:37;12.50;99.90
8892;DHT22;4482;54.332;10.118;2024-03-02T15:42:04;12.40;99.90
8892;DHT22;4482;54.332;10.118;2024-03-02T15:44:32;12.40;99.90
8892;DHT22;4482;54.332;10.118;2024-03-02T15:46:58;12.50;99.90
8892;DHT22;4482;54.332;10.118;2024-03-02T15:49:25;12.50;99.90
8892;DHT22;4482;54.332;10.118;2024-03-02T15:51:52;12.50;99.90
8892;DHT22;4482;54.332;10.118;2024-03-02T15:54:19;12.50;99.90
8892;DHT22;4482;54.332;10.118;2024-03-02T15:56:46;12.40;99.90
8892;DHT22;4482;54.332;10.118;2024-03-02T15:59:13;12.40;99.90